Time;durP1;ratioP1;P1;durP2;ratioP2;P2;SDS_P1;SDS_P2;PMS_P1;PMS_P2;Temp;Humidity;BMP_temperature;BMP_pressure;BME280_temperature;BME280_humidity;BME280_pressure;Samples;Min_cycle;Max_cycle;Signal;HPM_P1;HPM_P2
2021/05/03 00:00:16;;;;;;;7.30;3.10;;;5.50;85.30;;;;;;5052056;28;20180;-87
2021/05/03 00:02:42;;;;;;;7.43;2.73;;;5.50;85.10;;;;;;5051907;28;20175;-87
2021/05/03 00:05:26;;;;;;;7.97;2.90;;;5.50;84.70;;;;;;5052152;28;20310;-87
2021/05/03 00:07:52;;;;;;;6.90;2.60;;;5.50;85.10;;;;;;5051875;28;20217;-87
2021/05/03 00:10:19;;;;;;;6.67;2.60;;;5.40;84.80;;;;;;5052157;28;20176;-87
2021/05/03 00:12:45;;;;;;;6.67;2.63;;;5.50;85.00;;;;;;5052994;28;20249;-87
2021/05/03 00:15:13;;;;;;;3.87;2.10;;;5.40;84.20;;;;;;5051805;28;20194;-87
2021/05/03 00:17:39;;;;;;;3.07;1.73;;;5.40;84.00;;;;;;5052973;28;20203;-87
2021/05/03 00:20:07;;;;;;;2.33;1.80;;;5.50;83.80;;;;;;5051974;28;20179;-87
2021/05/03 00:22:33;;;;;;;6.70;1.87;;;5.50;83.60;;;;;;5051710;28;20172;-87
2021/05/03 00:24:58;;;;;;;5.77;1.70;;;5.50;83.10;;;;;;5053052;28;20657;-87
2021/05/03 00:27:24;;;;;;;3.30;1.60;;;5.50;83.30;;;;;;5051721;28;20179;-87
2021/05/03 00:29:50;;;;;;;4.27;1.90;;;5.60;83.70;;;;;;5052879;28;20646;-87
2021/05/03 00:32:15;;;;;;;4.33;2.10;;;5.60;83.80;;;;;;5051909;28;20271;-87
2021/05/03 00:34:41;;;;;;;3.60;2.07;;;5.70;83.90;;;;;;5051514;28;20192;-87
2021/05/03 00:37:07;;;;;;;2.87;2.07;;;5.60;83.70;;;;;;5052807;28;20201;-87
2021/05/03 00:39:32;;;;;;;4.27;2.10;;;5.60;84.30;;;;;;5053333;28;20640;-87
2021/05/03 00:41:58;;;;;;;3.10;2.50;;;5.50;84.80;;;;;;5051646;28;20557;-87
2021/05/03 00:44:26;;;;;;;6.00;2.30;;;5.30;84.80;;;;;;5052675;28;20673;-87
2021/05/03 00:46:54;;;;;;;6.83;2.67;;;5.20;85.30;;;;;;5055662;28;20282;-87
2021/05/03 00:49:20;;;;;;;5.57;2.80;;;5.10;85.70;;;;;;5055398;28;20180;-87
2021/05/03 00:51:46;;;;;;;7.07;3.17;;;5.00;86.30;;;;;;5056886;28;20570;-87
2021/05/03 00:54:11;;;;;;;11.57;3.87;;;4.90;86.60;;;;;;5056453;28;20681;-87
2021/05/03 00:56:37;;;;;;;4.73;3.17;;;4.90;86.90;;;;;;5055862;28;20278;-87
2021/05/03 00:59:03;;;;;;;8.60;3.57;;;4.90;87.20;;;;;;5055517;28;20644;-87
2021/05/03 01:01:29;;;;;;;6.50;3.20;;;4.90;87.40;;;;;;5055169;28;20182;-87
2021/05/03 01:03:54;;;;;;;5.27;4.20;;;4.90;87.40;;;;;;5056222;28;20214;-87
2021/05/03 01:06:20;;;;;;;9.57;4.37;;;4.80;87.30;;;;;;5056290;28;20569;-87
2021/05/03 01:08:46;;;;;;;9.03;4.43;;;4.80;87.50;;;;;;5054989;28;20205;-87
2021/05/03 01:11:12;;;;;;;8.10;4.13;;;4.70;87.90;;;;;;5055232;28;20638;-87
2021/05/03 01:13:39;;;;;;;7.23;3.90;;;4.70;87.80;;;;;;5056397;28;20202;-87
2021/05/03 01:16:05;;;;;;;12.67;4.07;;;4.70;87.70;;;;;;5055684;28;20207;-87
2021/05/03 01:18:35;;;;;;;7.37;4.17;;;4.70;87.80;;;;;;5054873;28;20688;-87
2021/05/03 01:21:01;;;;;;;7.83;4.40;;;4.80;87.60;;;;;;5054728;28;20551;-87
2021/05/03 01:23:26;;;;;;;8.47;4.00;;;4.80;87.20;;;;;;5054606;28;20200;-87
2021/05/03 01:25:53;;;;;;;5.93;3.60;;;4.80;87.00;;;;;;5056079;28;20223;-87
2021/05/03 01:28:19;;;;;;;6.27;3.37;;;4.80;87.00;;;;;;5054547;28;20214;-87
2021/05/03 01:30:47;;;;;;;5.03;2.90;;;4.70;87.10;;;;;;5055756;28;20180;-87
2021/05/03 01:33:15;;;;;;;8.27;3.60;;;4.70;87.00;;;;;;5054442;28;20196;-87
2021/05/03 01:35:44;;;;;;;7.77;3.23;;;4.70;87.10;;;;;;5055713;28;20177;-87
2021/05/03 01:38:10;;;;;;;6.37;2.83;;;4.60;87.40;;;;;;5055676;28;20180;-87
2021/05/03 01:40:40;;;;;;;9.40;4.40;;;4.70;87.60;;;;;;5054377;28;20731;-87
2021/05/03 01:43:11;;;;;;;8.17;3.30;;;4.70;87.80;;;;;;5054373;28;20285;-87
2021/05/03 01:45:38;;;;;;;6.17;3.27;;;4.60;87.90;;;;;;5054226;28;20207;-87
2021/05/03 01:48:05;;;;;;;9.40;3.63;;;4.60;88.00;;;;;;5055502;28;20192;-87
2021/05/03 01:50:30;;;;;;;8.93;3.30;;;4.60;88.00;;;;;;5054494;28;20203;-87
2021/05/03 01:52:57;;;;;;;7.97;3.13;;;4.60;88.10;;;;;;5055370;28;20251;-86
2021/05/03 01:55:22;;;;;;;7.73;3.63;;;4.60;88.20;;;;;;5055307;28;20181;-86
2021/05/03 01:57:48;;;;;;;3.47;3.17;;;4.60;88.30;;;;;;5054406;28;20180;-87
2021/05/03 02:00:15;;;;;;;4.37;3.47;;;4.60;88.40;;;;;;5053963;28;20183;-87
2021/05/03 02:02:45;;;;;;;3.73;3.40;;;4.60;88.40;;;;;;5055219;28;20183;-87
2021/05/03 02:05:20;;;;;;;4.43;2.20;;;4.60;88.00;;;;;;5054961;28;20204;-86
2021/05/03 02:07:53;;;;;;;3.90;2.50;;;4.70;87.10;;;;;;5055154;28;20625;-87
2021/05/03 02:10:19;;;;;;;4.63;2.20;;;4.70;86.60;;;;;;5053749;28;20170;-87
2021/05/03 02:12:44;;;;;;;5.10;2.07;;;4.70;85.60;;;;;;5054874;28;20237;-87
2021/05/03 02:15:11;;;;;;;4.60;1.97;;;4.80;85.30;;;;;;5053724;28;20240;-87
2021/05/03 02:17:36;;;;;;;4.37;1.63;;;4.80;85.20;;;;;;5053680;28;20217;-87
2021/05/03 02:20:03;;;;;;;5.93;1.73;;;4.90;85.00;;;;;;5053529;28;20210;-87
2021/05/03 02:22:28;;;;;;;5.00;2.20;;;5.10;84.60;;;;;;5054757;28;20176;-87
2021/05/03 02:24:54;;;;;;;2.27;1.67;;;5.20;84.90;;;;;;5053442;28;20194;-87
2021/05/03 02:27:19;;;;;;;2.23;2.03;;;5.10;85.90;;;;;;5053511;28;20300;-88
2021/05/03 02:29:45;;;;;;;5.27;2.70;;;5.00;87.00;;;;;;5054595;28;20168;-88
2021/05/03 02:32:10;;;;;;;5.13;3.30;;;4.90;87.90;;;;;;5054562;28;20213;-88
2021/05/03 02:34:36;;;;;;;5.37;3.47;;;4.90;88.60;;;;;;5053191;28;20694;-87
2021/05/03 02:37:02;;;;;;;5.57;3.50;;;4.90;89.00;;;;;;5053868;28;20179;-87
2021/05/03 02:39:27;;;;;;;7.37;3.53;;;4.90;89.10;;;;;;5054471;28;20591;-87
2021/05/03 02:41:53;;;;;;;6.83;4.00;;;4.90;89.10;;;;;;5053131;28;20179;-87
2021/05/03 02:44:18;;;;;;;6.60;3.53;;;4.90;89.20;;;;;;5054522;28;20199;-87
2021/05/03 02:46:45;;;;;;;6.17;4.63;;;4.80;89.40;;;;;;5052991;28;20192;-87
2021/05/03 02:49:11;;;;;;;7.47;4.70;;;4.70;89.20;;;;;;5054302;28;20206;-87
2021/05/03 02:51:37;;;;;;;7.17;4.80;;;4.60;89.40;;;;;;5052953;28;20210;-87
2021/05/03 02:54:04;;;;;;;8.50;4.93;;;4.60;89.40;;;;;;5054297;28;20653;-87
2021/05/03 02:56:30;;;;;;;5.10;3.90;;;4.60;89.40;;;;;;5054141;28;20176;-87
2021/05/03 02:58:56;;;;;;;5.37;4.33;;;4.40;89.40;;;;;;5052896;28;20667;-87
2021/05/03 03:01:21;;;;;;;5.97;5.37;;;4.40;89.40;;;;;;5052817;28;20182;-87
2021/05/03 03:03:47;;;;;;;5.33;4.57;;;4.40;89.60;;;;;;5053951;28;20302;-87
2021/05/03 03:06:12;;;;;;;8.13;5.17;;;4.30;89.60;;;;;;5052646;28;20299;-87
2021/05/03 03:08:38;;;;;;;8.07;4.50;;;4.30;90.10;;;;;;5052336;28;20175;-87
2021/05/03 03:11:03;;;;;;;9.60;4.93;;;4.40;90.10;;;;;;5052625;28;20179;-87
2021/05/03 03:13:30;;;;;;;8.63;4.20;;;4.40;90.10;;;;;;5053691;28;20197;-87
2021/05/03 03:15:56;;;;;;;10.93;4.57;;;4.40;90.00;;;;;;5054046;28;20182;-87
2021/05/03 03:18:21;;;;;;;5.17;3.70;;;4.30;89.80;;;;;;5053776;28;20171;-87
2021/05/03 03:20:47;;;;;;;6.23;4.50;;;4.40;89.70;;;;;;5052891;28;20189;-87
2021/05/03 03:23:13;;;;;;;6.73;4.77;;;4.30;89.70;;;;;;5053896;28;20671;-87
2021/05/03 03:25:38;;;;;;;6.27;4.00;;;4.30;89.60;;;;;;5052270;28;20200;-87
2021/05/03 03:28:04;;;;;;;6.13;3.77;;;4.40;89.10;;;;;;5052436;28;20182;-87
2021/05/03 03:30:30;;;;;;;7.67;3.97;;;4.40;88.80;;;;;;5053771;28;20224;-87
2021/05/03 03:32:55;;;;;;;6.20;3.37;;;4.40;89.00;;;;;;5053732;28;20507;-87
2021/05/03 03:35:21;;;;;;;7.80;3.83;;;4.30;89.10;;;;;;5052307;28;20186;-87
2021/05/03 03:37:48;;;;;;;6.40;4.00;;;4.30;88.90;;;;;;5053386;28;20183;-87
2021/05/03 03:40:17;;;;;;;7.03;3.87;;;4.30;89.10;;;;;;5052174;28;20179;-87
2021/05/03 03:42:43;;;;;;;4.80;3.43;;;4.30;89.00;;;;;;5052114;28;20268;-87
2021/05/03 03:45:10;;;;;;;6.90;4.13;;;4.30;89.00;;;;;;5053107;28;20222;-87
2021/05/03 03:47:36;;;;;;;13.57;4.70;;;4.30;89.00;;;;;;5052026;28;20308;-87
2021/05/03 03:50:03;;;;;;;7.77;5.13;;;4.30;89.30;;;;;;5051934;28;20650;-87
2021/05/03 03:52:29;;;;;;;7.70;5.10;;;4.30;89.50;;;;;;5052282;28;20182;-87
2021/05/03 03:54:54;;;;;;;6.33;5.00;;;4.30;89.60;;;;;;5051885;28;20281;-87
2021/05/03 03:57:20;;;;;;;5.53;4.50;;;4.30;89.80;;;;;;5052058;28;20210;-87
2021/05/03 03:59:50;;;;;;;6.33;4.73;;;4.30;89.80;;;;;;5053050;28;20188;-87
2021/05/03 04:02:15;;;;;;;5.97;5.37;;;4.40;89.80;;;;;;5052254;28;20197;-88
2021/05/03 04:04:45;;;;;;;6.00;5.40;;;4.40;89.90;;;;;;5051865;28;20212;-88
2021/05/03 04:07:18;;;;;;;7.70;5.60;;;4.40;90.10;;;;;;5052607;28;20217;-88
2021/05/03 04:09:55;;;;;;;9.50;5.53;;;4.50;89.80;;;;;;5052192;28;20178;-88
2021/05/03 04:23:34;;;;;;;13.97;6.13;;;4.50;90.70;;;;;;5057359;28;20181;-88
2021/05/03 04:25:53;;;;;;;13.10;6.37;;;4.60;90.70;;;;;;5056797;28;20194;-89
2021/05/03 04:28:19;;;;;;;10.83;5.77;;;4.70;90.50;;;;;;5055756;28;20550;-89
2021/05/03 04:30:45;;;;;;;19.67;6.40;;;4.70;90.30;;;;;;5055730;28;20528;-90
2021/05/03 04:33:10;;;;;;;8.73;5.73;;;4.60;90.00;;;;;;5055784;28;20195;-90
2021/05/03 04:35:36;;;;;;;8.13;6.30;;;4.70;90.30;;;;;;5055714;28;20188;-90
2021/05/03 04:38:02;;;;;;;8.50;6.10;;;4.70;89.80;;;;;;5055710;28;20248;-90
2021/05/03 04:40:27;;;;;;;12.57;6.30;;;4.80;89.70;;;;;;5056777;28;20270;-90
2021/05/03 04:42:53;;;;;;;8.67;6.17;;;4.70;89.60;;;;;;5055624;28;20176;-89
2021/05/03 04:45:19;;;;;;;8.13;5.77;;;4.60;89.40;;;;;;5055510;28;20198;-90
2021/05/03 04:47:45;;;;;;;9.47;6.93;;;4.60;89.60;;;;;;5055442;28;20182;-90
2021/05/03 04:50:12;;;;;;;7.97;5.80;;;4.60;89.80;;;;;;5055729;28;20259;-90
2021/05/03 04:52:38;;;;;;;10.53;5.87;;;4.60;89.70;;;;;;5055362;28;20176;-89
2021/05/03 04:55:05;;;;;;;9.27;6.00;;;4.60;89.80;;;;;;5055313;28;20192;-90
2021/05/03 04:57:31;;;;;;;8.57;5.33;;;4.60;89.90;;;;;;5055245;28;20174;-90
2021/05/03 04:59:56;;;;;;;10.37;5.60;;;4.70;90.00;;;;;;5056676;28;20178;-90
2021/05/03 05:02:22;;;;;;;7.13;5.63;;;4.80;89.80;;;;;;5055130;28;20193;-90
2021/05/03 05:04:48;;;;;;;12.03;6.13;;;4.80;89.80;;;;;;5056466;28;20200;-90
2021/05/03 05:07:13;;;;;;;8.00;5.50;;;4.80;89.90;;;;;;5054985;28;20549;-90
2021/05/03 05:09:39;;;;;;;9.93;5.80;;;4.70;89.80;;;;;;5055123;28;20185;-90
2021/05/03 05:12:05;;;;;;;10.93;5.67;;;4.60;89.70;;;;;;5055015;28;20175;-90
2021/05/03 05:14:31;;;;;;;9.70;5.43;;;4.60;89.70;;;;;;5054888;28;20264;-90
2021/05/03 05:16:57;;;;;;;6.77;5.10;;;4.50;89.10;;;;;;5056235;28;20182;-90
2021/05/03 05:19:24;;;;;;;6.00;4.87;;;4.50;89.10;;;;;;5054838;28;20176;-90
2021/05/03 05:21:49;;;;;;;8.97;4.97;;;4.40;89.20;;;;;;5155109;22;20246;-88
2021/05/03 05:24:15;;;;;;;6.53;4.47;;;4.40;89.40;;;;;;5056307;28;20178;-88
2021/05/03 05:26:41;;;;;;;6.87;4.53;;;4.30;89.20;;;;;;5054560;28;20250;-88
2021/05/03 05:29:07;;;;;;;8.03;4.83;;;4.40;89.20;;;;;;5054594;28;20246;-88
2021/05/03 05:31:32;;;;;;;6.97;4.87;;;4.30;89.10;;;;;;5055787;28;20188;-88
2021/05/03 05:33:58;;;;;;;5.27;4.50;;;4.30;89.30;;;;;;5054577;28;20205;-88
2021/05/03 05:36:24;;;;;;;7.10;4.83;;;4.30;89.30;;;;;;5054630;28;20182;-88
2021/05/03 05:38:49;;;;;;;5.07;4.00;;;4.40;89.30;;;;;;5055701;28;20161;-88
2021/05/03 05:41:18;;;;;;;6.43;5.53;;;4.50;89.20;;;;;;5054416;28;20192;-88
2021/05/03 05:43:44;;;;;;;11.87;5.43;;;4.60;89.50;;;;;;5055569;28;20172;-88
2021/05/03 05:46:10;;;;;;;11.97;5.43;;;4.70;89.70;;;;;;5054311;28;20202;-88
2021/05/03 05:48:36;;;;;;;11.80;6.00;;;4.70;89.60;;;;;;5054188;28;20179;-88
2021/05/03 05:51:03;;;;;;;8.90;5.47;;;4.70;89.60;;;;;;5054195;28;20198;-88
2021/05/03 05:53:30;;;;;;;7.63;5.67;;;4.70;89.60;;;;;;5054432;28;20180;-88
2021/05/03 05:55:56;;;;;;;8.80;5.53;;;4.80;89.60;;;;;;5054042;28;20234;-88
2021/05/03 05:58:22;;;;;;;11.13;6.23;;;5.00;89.80;;;;;;5054083;28;20188;-88
2021/05/03 06:00:47;;;;;;;8.30;5.57;;;5.20;89.80;;;;;;5055161;28;20266;-88
2021/05/03 06:03:13;;;;;;;9.97;6.00;;;5.40;89.40;;;;;;5055241;28;20175;-88
2021/05/03 06:05:39;;;;;;;9.50;6.70;;;5.50;89.00;;;;;;5055354;28;20191;-88
2021/05/03 06:08:04;;;;;;;9.87;6.60;;;5.60;88.80;;;;;;5055146;28;20595;-88
2021/05/03 06:10:30;;;;;;;7.50;5.87;;;5.70;88.80;;;;;;5053934;28;20696;-88
2021/05/03 06:12:56;;;;;;;11.63;6.37;;;5.80;88.50;;;;;;5053680;28;20179;-88
2021/05/03 06:15:21;;;;;;;9.30;6.53;;;5.90;88.30;;;;;;5053739;28;20282;-88
2021/05/03 06:17:47;;;;;;;6.03;5.40;;;5.90;87.90;;;;;;5054088;28;20260;-88
2021/05/03 06:20:13;;;;;;;9.10;5.40;;;6.00;87.70;;;;;;5053529;28;20206;-88
2021/05/03 06:22:39;;;;;;;6.90;4.43;;;6.10;87.30;;;;;;5055271;28;20165;-88
2021/05/03 06:25:07;;;;;;;6.30;4.43;;;6.10;87.00;;;;;;5053181;28;20184;-88
2021/05/03 06:27:33;;;;;;;7.73;4.33;;;6.20;86.90;;;;;;5054826;28;20164;-88
2021/05/03 06:29:58;;;;;;;7.33;4.40;;;6.30;87.40;;;;;;5053364;28;20183;-88
2021/05/03 06:32:24;;;;;;;7.20;4.60;;;6.40;87.00;;;;;;5053423;28;20205;-87
2021/05/03 06:34:50;;;;;;;5.73;4.07;;;6.30;86.40;;;;;;5053643;28;20182;-87
2021/05/03 06:37:16;;;;;;;7.20;5.17;;;6.30;86.40;;;;;;5054977;28;20568;-88
2021/05/03 06:39:41;;;;;;;6.07;3.83;;;6.30;86.80;;;;;;5053908;28;20714;-88
2021/05/03 06:42:07;;;;;;;6.40;4.50;;;6.40;86.70;;;;;;5053520;28;20232;-88
2021/05/03 06:44:34;;;;;;;7.50;4.47;;;6.50;86.40;;;;;;5052555;28;20685;-88
2021/05/03 06:47:02;;;;;;;5.77;4.40;;;6.60;85.50;;;;;;5053889;28;20212;-88
2021/05/03 06:49:27;;;;;;;6.93;4.50;;;6.70;86.20;;;;;;5053014;28;20181;-88
2021/05/03 06:51:53;;;;;;;5.83;3.70;;;6.80;86.10;;;;;;5053337;28;20208;-87
2021/05/03 06:54:19;;;;;;;4.27;3.63;;;6.90;84.30;;;;;;5053034;28;20669;-88
2021/05/03 06:56:44;;;;;;;4.60;4.07;;;7.00;85.00;;;;;;5052943;28;20241;-88
2021/05/03 06:59:10;;;;;;;4.50;3.50;;;7.10;85.10;;;;;;5052913;28;20183;-88
2021/05/03 07:01:36;;;;;;;3.37;3.07;;;7.20;84.60;;;;;;5052769;28;20193;-88
2021/05/03 07:04:02;;;;;;;3.73;3.37;;;7.10;83.80;;;;;;5054314;28;20185;-88
2021/05/03 07:06:27;;;;;;;8.23;4.07;;;7.20;84.90;;;;;;5053983;28;20214;-88
2021/05/03 07:08:53;;;;;;;5.60;4.10;;;7.30;84.80;;;;;;5052765;28;20169;-87
2021/05/03 07:11:23;;;;;;;4.87;3.83;;;7.30;85.10;;;;;;5052594;28;20246;-88
2021/05/03 07:13:49;;;;;;;12.50;7.10;;;7.20;83.90;;;;;;5052776;28;20172;-88
2021/05/03 07:16:14;;;;;;;5.40;3.43;;;7.10;83.70;;;;;;5054076;28;20225;-87
2021/05/03 07:18:40;;;;;;;6.30;3.77;;;7.10;83.90;;;;;;5052567;28;20242;-88
2021/05/03 07:21:06;;;;;;;6.03;4.00;;;7.30;84.90;;;;;;5052308;28;20217;-88
2021/05/03 07:23:32;;;;;;;5.00;4.50;;;7.40;84.30;;;;;;5052438;28;20186;-88
2021/05/03 07:25:59;;;;;;;7.80;4.07;;;7.60;85.00;;;;;;5052373;28;20209;-88
2021/05/03 07:28:25;;;;;;;6.87;3.53;;;7.80;84.30;;;;;;5053721;28;20172;-88
2021/05/03 07:30:57;;;;;;;6.70;3.43;;;7.70;81.80;;;;;;5052285;28;20278;-88
2021/05/03 07:33:23;;;;;;;4.20;3.47;;;7.70;82.40;;;;;;5052420;28;20175;-88
2021/05/03 07:35:49;;;;;;;4.50;3.10;;;7.70;82.40;;;;;;5053488;28;20175;-88
2021/05/03 07:38:14;;;;;;;6.00;3.23;;;7.80;82.10;;;;;;5053752;28;20512;-88
2021/05/03 07:40:40;;;;;;;4.57;3.20;;;7.90;80.90;;;;;;5052497;28;20257;-88
2021/05/03 07:43:06;;;;;;;3.73;3.37;;;7.90;81.10;;;;;;5052296;28;20175;-88
2021/05/03 07:45:31;;;;;;;4.13;3.23;;;8.10;82.80;;;;;;5052014;28;20677;-88
2021/05/03 07:47:57;;;;;;;6.70;3.60;;;8.30;81.80;;;;;;5051976;28;20186;-88
2021/05/03 07:50:22;;;;;;;3.30;3.00;;;8.10;80.40;;;;;;5051869;28;20200;-87
2021/05/03 07:52:48;;;;;;;6.33;3.83;;;7.90;80.30;;;;;;5051919;28;20179;-87
2021/05/03 07:55:16;;;;;;;4.57;3.37;;;7.80;80.90;;;;;;5052506;28;20183;-86
2021/05/03 07:57:42;;;;;;;4.30;3.90;;;8.00;82.20;;;;;;5051864;28;20171;-87
2021/05/03 08:00:09;;;;;;;4.37;2.90;;;8.20;82.40;;;;;;5052964;28;20198;-87
2021/05/03 08:02:34;;;;;;;3.67;3.37;;;8.10;80.30;;;;;;5053031;28;20175;-86
2021/05/03 08:05:01;;;;;;;4.03;3.00;;;7.90;80.30;;;;;;5051687;28;20270;-86
2021/05/03 08:07:26;;;;;;;4.73;4.20;;;7.80;80.90;;;;;;5051661;28;20199;-86
2021/05/03 08:09:52;;;;;;;5.97;5.47;;;7.70;81.20;;;;;;5051577;28;20185;-87
2021/05/03 08:12:18;;;;;;;3.77;3.37;;;7.80;82.00;;;;;;5051577;28;20270;-88
2021/05/03 08:14:44;;;;;;;5.83;3.40;;;7.90;80.70;;;;;;5052708;28;20160;-89
2021/05/03 08:17:13;;;;;;;3.93;3.07;;;8.00;81.00;;;;;;5053048;28;20179;-87
2021/05/03 08:19:39;;;;;;;6.27;2.50;;;8.00;80.70;;;;;;5053336;28;20176;-87
2021/05/03 08:22:05;;;;;;;5.57;2.77;;;7.90;77.80;;;;;;5051668;28;20219;-87
2021/05/03 08:24:33;;;;;;;3.80;3.17;;;7.90;79.50;;;;;;5052926;28;20175;-88
2021/05/03 08:26:59;;;;;;;4.70;3.30;;;8.00;79.20;;;;;;5051530;28;20204;-88
2021/05/03 08:29:25;;;;;;;5.93;3.27;;;8.10;80.40;;;;;;5051851;28;20183;-87
2021/05/03 08:31:51;;;;;;;4.37;3.17;;;8.20;80.90;;;;;;5051534;28;20188;-88
2021/05/03 08:34:17;;;;;;;4.33;2.70;;;8.10;78.90;;;;;;5051634;28;20584;-88
2021/05/03 08:36:43;;;;;;;3.80;3.50;;;8.00;80.10;;;;;;5051810;28;20172;-87
2021/05/03 08:39:09;;;;;;;3.40;2.47;;;8.10;80.00;;;;;;5051420;28;20263;-87
2021/05/03 08:41:37;;;;;;;3.37;3.07;;;7.90;80.40;;;;;;5052624;28;20684;-87
2021/05/03 08:44:03;;;;;;;3.70;2.77;;;7.90;79.60;;;;;;5051341;28;20179;-86
2021/05/03 08:46:31;;;;;;;3.30;3.00;;;7.90;79.60;;;;;;5051326;28;20298;-87
2021/05/03 08:56:40;;;;;;;4.33;3.33;;;7.60;79.80;;;;;;5052977;28;20158;-87
2021/05/03 08:59:06;;;;;;;4.83;3.40;;;7.60;79.30;;;;;;5051335;28;20188;-87
2021/05/03 09:01:32;;;;;;;5.00;3.70;;;7.70;80.80;;;;;;5052734;28;20604;-88
2021/05/03 09:03:59;;;;;;;4.13;3.60;;;7.70;80.80;;;;;;5051307;28;20552;-87
2021/05/03 09:06:25;;;;;;;4.37;3.97;;;7.60;80.80;;;;;;5052913;28;20209;-87
2021/05/03 09:09:06;;;;;;;6.93;4.17;;;7.70;81.00;;;;;;5055024;28;20179;-87
2021/05/03 09:11:34;;;;;;;4.23;3.83;;;7.60;80.70;;;;;;5054930;28;20192;-87
2021/05/03 09:14:08;;;;;;;3.50;3.20;;;7.70;81.20;;;;;;5056512;28;20171;-87
2021/05/03 09:16:40;;;;;;;3.47;3.17;;;7.70;80.30;;;;;;5056207;28;20179;-87
2021/05/03 09:19:05;;;;;;;5.37;3.97;;;7.70;80.60;;;;;;5055379;28;20183;-87
2021/05/03 09:21:33;;;;;;;6.50;3.80;;;7.80;80.90;;;;;;5055951;28;20580;-87
2021/05/03 09:24:17;;;;;;;6.17;4.77;;;7.80;80.90;;;;;;5055546;28;20248;-86
2021/05/03 09:26:56;;;;;;;5.50;4.53;;;8.00;82.50;;;;;;5054529;28;20205;-87
2021/05/03 09:29:45;;;;;;;5.87;5.03;;;7.90;81.70;;;;;;5054668;28;20174;-87
2021/05/03 09:32:14;;;;;;;7.47;5.70;;;8.00;81.40;;;;;;5054644;28;20170;-87
2021/05/03 09:34:41;;;;;;;7.60;4.80;;;8.10;81.30;;;;;;5054826;28;20176;-86
2021/05/03 09:37:29;;;;;;;7.60;5.77;;;8.00;81.40;;;;;;5055728;28;20249;-86
2021/05/03 09:39:56;;;;;;;8.07;5.57;;;8.00;80.50;;;;;;5054428;28;20634;-87
2021/05/03 09:42:23;;;;;;;6.97;4.97;;;8.10;81.10;;;;;;5055626;28;20172;-88
2021/05/03 09:45:26;;;;;;;7.40;5.17;;;8.20;80.20;;;;;;5055920;28;20634;-88
2021/05/03 09:47:54;;;;;;;6.30;4.87;;;8.20;80.00;;;;;;5017180;28;20199;-87
2021/05/03 09:50:22;;;;;;;6.60;5.03;;;8.20;79.40;;;;;;5046763;28;20577;-87
2021/05/03 09:53:08;;;;;;;9.07;5.60;;;8.40;81.20;;;;;;5054080;28;20169;-87
2021/05/03 09:55:38;;;;;;;6.63;5.20;;;8.60;79.70;;;;;;5054143;28;20184;-86
2021/05/03 09:58:07;;;;;;;6.07;4.57;;;8.70;79.00;;;;;;5055201;28;20176;-86
2021/05/03 10:00:36;;;;;;;5.27;4.77;;;8.80;80.80;;;;;;5055124;28;20203;-85
2021/05/03 10:03:21;;;;;;;4.87;4.43;;;8.90;77.80;;;;;;5053887;28;20176;-87
2021/05/03 10:05:47;;;;;;;6.07;5.10;;;8.80;79.30;;;;;;5053641;28;20207;-87
2021/05/03 10:08:13;;;;;;;5.50;5.00;;;9.00;79.90;;;;;;5055082;28;20168;-86
2021/05/03 10:10:44;;;;;;;4.97;4.53;;;9.00;78.30;;;;;;5053840;28;20249;-86
2021/05/03 10:13:11;;;;;;;6.67;5.30;;;9.00;78.20;;;;;;5055292;28;20153;-86
2021/05/03 10:15:36;;;;;;;5.83;5.30;;;8.70;78.00;;;;;;5053636;28;20207;-85
2021/05/03 10:18:02;;;;;;;6.73;5.07;;;8.80;77.90;;;;;;5052761;28;20677;-87
2021/05/03 10:20:29;;;;;;;6.40;5.07;;;9.00;78.80;;;;;;5054650;28;20540;-87
2021/05/03 10:22:56;;;;;;;8.20;5.50;;;8.90;76.30;;;;;;5053966;28;20187;-86
2021/05/03 10:25:22;;;;;;;6.43;4.40;;;9.10;77.10;;;;;;5053466;28;20176;-86
2021/05/03 10:27:48;;;;;;;4.17;3.80;;;9.00;76.60;;;;;;5053481;28;20234;-86
2021/05/03 10:30:17;;;;;;;6.63;4.33;;;9.00;76.00;;;;;;5053375;28;20196;-86
2021/05/03 10:32:57;;;;;;;5.00;4.60;;;9.20;76.70;;;;;;5054653;28;20512;-86
2021/05/03 10:35:28;;;;;;;6.80;6.10;;;9.30;75.60;;;;;;5054536;28;20153;-86
2021/05/03 10:37:58;;;;;;;5.60;5.10;;;9.90;78.90;;;;;;5054474;28;20237;-86
2021/05/03 10:40:24;;;;;;;7.40;4.87;;;9.80;75.50;;;;;;5053580;28;20352;-86
2021/05/03 10:43:02;;;;;;;4.33;3.93;;;9.50;75.20;;;;;;5054476;28;20191;-87
2021/05/03 10:46:09;;;;;;;5.03;4.63;;;9.50;75.80;;;;;;5054403;28;20168;-87
2021/05/03 10:49:02;;;;;;;4.93;4.43;;;9.20;75.20;;;;;;5053090;28;20182;-87
2021/05/03 10:56:53;;;;;;;5.20;4.70;;;9.30;76.60;;;;;;5054198;28;20161;-87
2021/05/03 10:59:19;;;;;;;4.67;4.27;;;9.10;75.70;;;;;;5054182;28;20176;-86
2021/05/03 11:01:54;;;;;;;4.57;4.17;;;9.00;75.30;;;;;;5054000;28;20734;-86
2021/05/03 11:04:28;;;;;;;4.63;4.23;;;8.90;75.00;;;;;;5054324;28;20180;-86
2021/05/03 11:06:57;;;;;;;4.27;3.87;;;8.80;74.30;;;;;;5052828;28;20227;-87
2021/05/03 11:09:32;;;;;;;4.60;4.20;;;8.70;74.60;;;;;;5053911;28;20168;-86
2021/05/03 11:11:58;;;;;;;7.20;4.13;;;8.80;75.30;;;;;;5052708;28;20230;-87
2021/05/03 11:14:28;;;;;;;5.00;4.60;;;8.90;76.50;;;;;;5053822;28;20723;-87
2021/05/03 11:17:04;;;;;;;4.43;4.03;;;9.20;76.30;;;;;;5052595;28;20176;-87
2021/05/03 11:19:41;;;;;;;4.53;4.13;;;9.10;74.30;;;;;;5054012;28;20183;-86
2021/05/03 11:22:16;;;;;;;4.93;4.23;;;9.00;74.50;;;;;;5079898;22;20239;-86
2021/05/03 11:27:28;;;;;;;6.30;5.30;;;9.30;75.00;;;;;;5056043;28;20202;-86
2021/05/03 11:30:16;;;;;;;5.87;5.30;;;9.30;74.30;;;;;;5054370;28;20188;-86
2021/05/03 11:32:42;;;;;;;6.00;5.40;;;9.40;75.60;;;;;;5034478;28;20641;-84
2021/05/03 11:38:17;;;;;;;6.73;6.07;;;9.10;76.00;;;;;;5036382;28;20149;-86
2021/05/03 11:46:35;;;;;;;6.50;5.90;;;9.20;76.60;;;;;;5035944;28;20195;-85
2021/05/03 11:49:10;;;;;;;5.43;5.00;;;9.10;77.10;;;;;;5035092;28;20171;-85
2021/05/03 11:51:57;;;;;;;6.83;5.47;;;9.00;75.20;;;;;;5036238;28;20651;-85
2021/05/03 11:54:43;;;;;;;6.37;5.77;;;9.00;75.10;;;;;;5036558;28;20207;-86
2021/05/03 11:57:17;;;;;;;5.33;4.90;;;9.00;75.30;;;;;;5035790;28;20642;-85
2021/05/03 11:59:44;;;;;;;5.93;5.07;;;9.10;74.50;;;;;;5035313;28;20172;-85
2021/05/03 12:02:12;;;;;;;5.87;5.37;;;9.10;75.20;;;;;;5036803;28;20196;-85
2021/05/03 12:04:46;;;;;;;10.03;6.40;;;9.10;75.10;;;;;;5035900;28;20200;-85
2021/05/03 12:07:22;;;;;;;6.03;5.50;;;9.10;75.90;;;;;;5036750;28;20245;-85
2021/05/03 12:10:04;;;;;;;7.60;6.83;;;9.00;75.60;;;;;;5035592;28;20626;-85
2021/05/03 12:12:40;;;;;;;7.37;6.30;;;9.00;78.10;;;;;;5035363;28;20168;-85
2021/05/03 12:15:10;;;;;;;7.13;6.43;;;9.10;77.60;;;;;;5034804;28;20622;-84
2021/05/03 12:17:36;;;;;;;7.87;7.17;;;9.10;77.10;;;;;;5034264;28;20184;-84
2021/05/03 12:20:10;;;;;;;8.27;7.40;;;9.10;77.60;;;;;;5034612;28;20183;-84
2021/05/03 12:22:37;;;;;;;9.47;8.00;;;9.00;77.30;;;;;;5040239;28;20184;-86
2021/05/03 12:25:08;;;;;;;8.87;7.97;;;9.00;77.00;;;;;;5036103;28;20176;-87
2021/05/03 12:27:34;;;;;;;10.43;6.57;;;9.30;78.00;;;;;;5034481;28;20204;-85
2021/05/03 12:30:02;;;;;;;7.83;6.70;;;9.30;76.80;;;;;;5035652;28;20668;-85
2021/05/03 12:32:37;;;;;;;9.83;7.60;;;9.80;76.50;;;;;;5039822;28;20219;-85
2021/05/03 12:35:12;;;;;;;8.80;6.33;;;10.00;75.00;;;;;;5035447;28;20159;-85
2021/05/03 12:37:38;;;;;;;10.60;7.70;;;9.60;74.60;;;;;;5036341;28;20680;-85
2021/05/03 12:40:22;;;;;;;7.03;6.33;;;9.90;74.90;;;;;;5034620;28;20176;-85
2021/05/03 12:42:54;;;;;;;10.53;7.37;;;10.10;74.30;;;;;;5040137;28;20172;-85
2021/05/03 12:45:32;;;;;;;7.43;6.73;;;10.60;75.10;;;;;;5041577;28;20179;-85
2021/05/03 12:56:29;;;;;;;10.90;9.80;;;10.20;72.90;;;;;;5039837;28;20225;-86
2021/05/03 13:05:15;;;;;;;9.47;8.33;;;10.90;71.60;;;;;;5044528;28;20173;-85
2021/05/03 13:29:46;;;;;;;7.03;6.33;;;11.40;70.20;;;;;;5039325;28;20239;-83
2021/05/03 13:32:19;;;;;;;7.90;7.10;;;11.20;67.60;;;;;;5042037;28;20188;-85
2021/05/03 13:34:48;;;;;;;11.00;7.17;;;11.30;67.50;;;;;;5043417;28;20658;-85
2021/05/03 13:37:15;;;;;;;7.23;6.57;;;11.30;68.00;;;;;;5039935;28;20248;-85
2021/05/03 13:39:42;;;;;;;9.97;7.00;;;11.40;67.10;;;;;;5040614;28;20176;-83
2021/05/03 13:42:09;;;;;;;9.37;8.40;;;11.20;67.30;;;;;;5039079;28;20227;-84
2021/05/03 13:44:36;;;;;;;8.90;7.43;;;11.10;68.60;;;;;;5039597;28;20184;-85
2021/05/03 13:47:01;;;;;;;8.67;6.70;;;11.30;68.60;;;;;;5039222;28;20200;-85
2021/05/03 13:49:27;;;;;;;9.17;7.43;;;11.30;66.90;;;;;;5041181;28;20192;-85
2021/05/03 13:51:53;;;;;;;8.57;7.77;;;11.30;69.00;;;;;;5041735;28;20192;-88
2021/05/03 13:54:18;;;;;;;8.23;7.40;;;11.20;65.40;;;;;;5039741;28;20318;-84
2021/05/03 13:56:44;;;;;;;10.03;8.63;;;11.20;67.30;;;;;;5039189;28;20561;-86
2021/05/03 13:59:10;;;;;;;9.87;8.73;;;11.10;68.40;;;;;;5040130;28;20642;-85
2021/05/03 14:01:35;;;;;;;12.33;9.37;;;11.10;67.70;;;;;;5038658;28;20196;-84
2021/05/03 14:04:01;;;;;;;12.87;8.80;;;11.20;68.20;;;;;;5038957;28;20256;-83
2021/05/03 14:06:27;;;;;;;10.83;8.33;;;11.60;66.80;;;;;;5040292;28;20720;-83
2021/05/03 14:08:54;;;;;;;8.77;7.87;;;11.80;66.20;;;;;;5038534;28;20223;-82
2021/05/03 14:11:20;;;;;;;10.37;8.23;;;11.60;66.90;;;;;;5039723;28;20196;-84